createdAt,value
2019-04-11T00:02:21.143Z,73.75
2019-04-11T00:04:52.563Z,73.54
2019-04-11T00:07:24.556Z,73.54
2019-04-11T00:09:56.757Z,73.51
2019-04-11T00:12:27.813Z,73.38
2019-04-11T00:14:58.833Z,73.50
2019-04-11T00:17:30.052Z,73.47
2019-04-11T00:20:02.153Z,73.47
2019-04-11T00:22:35.322Z,73.41
2019-04-11T00:25:07.337Z,73.29
2019-04-11T00:27:39.401Z,73.22
2019-04-11T00:30:10.527Z,73.17
2019-04-11T00:32:41.681Z,73.07
2019-04-11T00:35:12.709Z,72.83
2019-04-11T00:37:45.482Z,72.83
2019-04-11T00:40:17.490Z,72.86
2019-04-11T00:42:50.467Z,72.74
2019-04-11T00:45:21.644Z,72.78
2019-04-11T00:47:53.228Z,72.86
2019-04-11T00:50:25.264Z,72.76
2019-04-11T00:52:57.972Z,72.83
2019-04-11T00:55:29.463Z,72.92
2019-04-11T00:58:01.383Z,72.99
2019-04-11T01:00:33.338Z,72.90
2019-04-11T01:03:04.979Z,72.83
2019-04-11T01:05:37.375Z,72.81
2019-04-11T01:08:08.492Z,72.90
2019-04-11T01:10:39.463Z,72.90
2019-04-11T01:13:11.264Z,72.84
2019-04-11T01:15:44.894Z,72.84
2019-04-11T01:18:16.044Z,73.03
2019-04-11T01:20:48.004Z,73.00
2019-04-11T01:23:20.789Z,72.86
2019-04-11T01:25:52.724Z,72.87
2019-04-11T01:28:24.824Z,72.21
2019-04-11T01:30:57.651Z,71.97
2019-04-11T01:33:31.772Z,71.92
2019-04-11T01:36:04.772Z,71.92
2019-04-11T01:38:38.744Z,72.12
2019-04-11T01:41:12.131Z,72.49
2019-04-11T01:43:56.261Z,72.43
2019-04-11T01:46:20.874Z,72.39
2019-04-11T01:48:53.506Z,72.18
2019-04-11T01:51:34.539Z,72.37
2019-04-11T01:54:13.268Z,72.16
2019-04-11T01:56:45.341Z,72.02
2019-04-11T01:59:19.453Z,71.95
2019-04-11T02:02:03.308Z,71.72
2019-04-11T02:04:40.398Z,71.55
2019-04-11T02:07:12.225Z,71.41
2019-04-11T02:09:44.330Z,71.25
2019-04-11T02:12:16.276Z,71.04
2019-04-11T02:14:47.970Z,70.80
2019-04-11T02:17:19.065Z,70.80
2019-04-11T02:19:50.303Z,70.82
2019-04-11T02:22:22.941Z,70.82
2019-04-11T02:25:02.425Z,70.97
2019-04-11T02:27:35.041Z,71.06
2019-04-11T02:30:11.301Z,71.06
2019-04-11T02:32:43.348Z,71.49
2019-04-11T02:35:19.840Z,71.49
2019-04-11T02:37:52.046Z,71.31
2019-04-11T02:40:24.633Z,71.19
2019-04-11T02:42:57.293Z,71.16
2019-04-11T02:45:42.646Z,71.29
2019-04-11T02:48:02.167Z,71.34
2019-04-11T02:50:36.326Z,71.81
2019-04-11T02:53:09.249Z,72.10
2019-04-11T02:55:43.587Z,71.90
2019-04-11T02:58:15.252Z,71.90
2019-04-11T03:00:46.478Z,71.69
2019-04-11T03:03:17.920Z,71.69
2019-04-11T03:05:49.010Z,71.94
2019-04-11T03:08:22.013Z,71.94
2019-04-11T03:10:53.569Z,72.03
2019-04-11T03:13:29.441Z,72.03
2019-04-11T03:16:17.188Z,72.02
2019-04-11T03:18:54.971Z,72.15
2019-04-11T03:21:16.443Z,72.25
2019-04-11T03:23:53.988Z,72.25
2019-04-11T03:26:35.494Z,72.30
2019-04-11T03:29:11.201Z,72.20
2019-04-11T03:32:33.036Z,72.24
2019-04-11T03:37:13.800Z,72.59
2019-04-11T03:39:43.875Z,73.07
2019-04-11T03:42:24.408Z,73.07
2019-04-11T03:44:47.813Z,73.29
2019-04-11T03:47:33.951Z,73.86
2019-04-11T03:49:56.178Z,74.79
2019-04-11T03:52:24.262Z,74.79
2019-04-11T03:54:58.367Z,74.81
2019-04-11T03:57:29.908Z,74.83
2019-04-11T04:00:01.821Z,74.94
2019-04-11T04:02:34.841Z,74.29
2019-04-11T04:05:08.205Z,74.23
2019-04-11T04:07:40.338Z,74.23
2019-04-11T04:10:13.344Z,74.65
2019-04-11T04:12:45.978Z,74.71
2019-04-11T04:15:44.221Z,75.76
2019-04-11T04:18:03.530Z,75.25
2019-04-11T04:20:48.878Z,75.25
2019-04-11T04:23:24.898Z,74.76
2019-04-11T04:25:58.480Z,74.76
2019-04-11T04:28:31.562Z,74.65
2019-04-11T04:31:04.407Z,74.52
2019-04-11T04:33:36.164Z,74.46
2019-04-11T04:36:10.413Z,74.40
2019-04-11T04:38:41.613Z,74.39
2019-04-11T04:41:28.280Z,74.42
2019-04-11T04:43:50.498Z,74.62
2019-04-11T04:46:35.192Z,74.61
2019-04-11T04:48:55.797Z,74.61
2019-04-11T04:51:28.681Z,74.41
2019-04-11T04:54:00.416Z,74.41
2019-04-11T04:56:32.489Z,74.43
2019-04-11T04:59:06.967Z,74.46
2019-04-11T05:01:39.186Z,74.50
2019-04-11T05:04:11.453Z,74.35
2019-04-11T05:06:46.723Z,74.30
2019-04-11T05:09:15.541Z,74.17
2019-04-11T05:11:46.736Z,74.17
2019-04-11T05:14:18.920Z,74.06
2019-04-11T05:16:50.482Z,73.80
2019-04-11T05:19:22.530Z,73.80
2019-04-11T05:21:54.138Z,73.76
2019-04-11T05:24:26.300Z,73.91
2019-04-11T05:26:57.859Z,73.91
2019-04-11T05:29:29.241Z,73.70
2019-04-11T05:32:00.438Z,73.60
2019-04-11T05:34:33.048Z,73.42
2019-04-11T05:37:04.056Z,73.01
2019-04-11T05:39:36.370Z,72.97
2019-04-11T05:42:07.317Z,72.97
2019-04-11T05:44:40.367Z,72.60
2019-04-11T05:47:14.684Z,72.30
2019-04-11T05:49:46.641Z,72.30
2019-04-11T05:52:17.817Z,72.12
2019-04-11T05:54:54.268Z,71.99
2019-04-11T05:57:33.586Z,71.99
2019-04-11T05:59:59.314Z,71.94
2019-04-11T06:02:35.310Z,71.85
2019-04-11T06:05:09.030Z,71.62
2019-04-11T06:07:46.198Z,71.40
2019-04-11T06:10:24.609Z,71.40
2019-04-11T06:13:12.394Z,71.34
2019-04-11T06:15:49.258Z,71.34
2019-04-11T06:18:31.093Z,71.29
2019-04-11T06:20:59.789Z,71.08
2019-04-11T06:23:47.746Z,71.54
2019-04-11T06:26:30.418Z,71.68
2019-04-11T06:29:17.226Z,71.65
2019-04-11T06:31:47.514Z,71.57
2019-04-11T06:34:18.486Z,71.75
2019-04-11T06:37:00.041Z,71.75
2019-04-11T06:39:33.731Z,72.60
2019-04-11T06:42:10.705Z,72.65
2019-04-11T06:44:46.134Z,73.14
2019-04-11T06:47:35.390Z,72.84
2019-04-11T06:50:20.783Z,72.77
2019-04-11T06:52:52.953Z,72.77
2019-04-11T06:55:26.481Z,72.59
2019-04-11T06:58:00.446Z,71.61
2019-04-11T07:00:31.931Z,70.55
2019-04-11T07:03:05.644Z,69.90
2019-04-11T07:05:40.562Z,69.16
2019-04-11T07:08:11.698Z,68.71
2019-04-11T07:10:47.186Z,68.95
2019-04-11T07:13:22.807Z,69.55
2019-04-11T07:15:54.839Z,69.83
2019-04-11T07:18:44.236Z,69.83
2019-04-11T07:21:15.310Z,69.94
2019-04-11T07:24:05.281Z,70.26
2019-04-11T07:26:38.215Z,70.38
2019-04-11T07:29:23.953Z,70.59
2019-04-11T07:31:57.046Z,70.45
2019-04-11T07:34:47.797Z,69.77
2019-04-11T07:37:28.280Z,70.09
2019-04-11T07:40:05.721Z,70.48
2019-04-11T07:42:39.060Z,70.45
2019-04-11T07:45:23.779Z,70.52
2019-04-11T07:47:56.303Z,70.45
2019-04-11T07:50:27.641Z,70.58
2019-04-11T07:53:01.473Z,69.87
2019-04-11T07:55:32.819Z,69.32
2019-04-11T07:58:06.368Z,69.20
2019-04-11T08:00:44.829Z,68.64
2019-04-11T08:03:14.397Z,68.52
2019-04-11T08:05:57.206Z,68.93
2019-04-11T08:08:36.688Z,68.56
2019-04-11T08:11:09.590Z,68.99
2019-04-11T08:13:48.178Z,68.62
2019-04-11T08:16:37.133Z,69.10
2019-04-11T08:19:20.652Z,68.05
2019-04-11T08:22:08.410Z,65.19
2019-04-11T08:24:41.112Z,64.83
2019-04-11T08:27:28.959Z,63.32
2019-04-11T08:30:02.678Z,61.74
2019-04-11T08:32:38.530Z,60.67
2019-04-11T08:35:15.860Z,60.02
2019-04-11T08:38:01.001Z,58.97
2019-04-11T08:40:36.334Z,59.33
2019-04-11T08:43:08.875Z,60.19
2019-04-11T08:45:48.482Z,61.18
2019-04-11T08:48:21.138Z,62.26
2019-04-11T08:50:56.745Z,64.71
2019-04-11T08:53:45.252Z,67.49
2019-04-11T08:56:18.860Z,69.50
2019-04-11T08:59:13.697Z,71.01
2019-04-11T09:01:48.517Z,71.99
2019-04-11T09:04:36.545Z,72.52
2019-04-11T09:07:07.508Z,73.56
2019-04-11T09:09:40.958Z,73.80
2019-04-11T09:12:14.171Z,73.00
2019-04-11T09:14:58.849Z,72.02
2019-04-11T09:17:31.384Z,71.44
2019-04-11T09:20:15.795Z,71.08
2019-04-11T09:22:49.035Z,67.49
2019-04-11T09:25:39.053Z,67.70
2019-04-11T09:28:21.635Z,66.50
2019-04-11T09:30:57.277Z,66.87
2019-04-11T09:33:47.062Z,66.97
2019-04-11T09:36:19.800Z,67.36
2019-04-11T09:38:59.058Z,66.44
2019-04-11T09:41:38.611Z,65.82
2019-04-11T09:44:14.850Z,66.28
2019-04-11T09:46:59.760Z,67.41
2019-04-11T09:49:41.138Z,69.23
2019-04-11T09:52:14.284Z,69.76
2019-04-11T09:54:46.942Z,68.92
2019-04-11T09:57:22.807Z,67.37
2019-04-11T09:59:58.290Z,69.58
2019-04-11T10:02:31.067Z,69.32
2019-04-11T10:05:03.836Z,69.56
2019-04-11T10:07:37.621Z,68.79
2019-04-11T10:10:28.896Z,69.63
2019-04-11T10:13:18.720Z,70.02
2019-04-11T10:16:09.664Z,70.53
2019-04-11T10:18:45.391Z,70.40
2019-04-11T10:21:19.761Z,69.46
2019-04-11T10:23:58.960Z,69.46
2019-04-11T10:26:31.967Z,67.27
2019-04-11T10:29:19.610Z,67.98
2019-04-11T10:31:55.106Z,68.78
2019-04-11T10:34:37.469Z,70.06
2019-04-11T10:37:11.660Z,70.06
2019-04-11T10:39:53.903Z,71.01
2019-04-11T10:42:25.060Z,71.15
2019-04-11T10:45:16.449Z,72.44
2019-04-11T10:47:47.731Z,72.16
2019-04-11T10:50:36.036Z,72.43
2019-04-11T10:53:07.077Z,72.68
2019-04-11T10:55:42.382Z,72.62
2019-04-11T10:58:14.912Z,72.22
2019-04-11T11:00:59.779Z,72.56
2019-04-11T11:03:38.324Z,72.21
2019-04-11T11:06:11.540Z,71.16
2019-04-11T11:08:53.430Z,70.26
2019-04-11T11:11:38.650Z,70.32
2019-04-11T11:14:14.326Z,70.53
2019-04-11T11:16:50.726Z,71.44
2019-04-11T11:19:50.185Z,71.51
2019-04-11T11:22:14.680Z,71.62
2019-04-11T11:25:03.749Z,69.91
2019-04-11T11:27:36.323Z,65.79
2019-04-11T11:30:27.396Z,63.56
2019-04-11T11:32:58.378Z,62.96
2019-04-11T11:35:33.983Z,63.85
2019-04-11T11:38:06.035Z,62.94
2019-04-11T11:40:56.280Z,63.44
2019-04-11T11:43:28.968Z,63.70
2019-04-11T11:46:25.559Z,63.55
2019-04-11T11:48:57.185Z,63.57
2019-04-11T11:51:31.153Z,62.59
2019-04-11T11:54:13.606Z,62.30
2019-04-11T11:56:47.428Z,62.26
2019-04-11T11:59:20.710Z,63.05
2019-04-11T12:01:56.910Z,62.90
2019-04-11T12:04:46.476Z,65.26
2019-04-11T12:07:23.000Z,64.71
2019-04-11T12:10:13.233Z,64.72
2019-04-11T12:12:46.419Z,64.71
2019-04-11T12:15:37.300Z,64.52
2019-04-11T12:18:11.007Z,66.31
2019-04-11T12:20:59.379Z,66.79
2019-04-11T12:23:58.101Z,67.53
2019-04-11T12:26:22.069Z,66.36
2019-04-11T12:28:54.724Z,65.64
2019-04-11T12:31:28.700Z,65.12
2019-04-11T12:34:01.697Z,64.25
2019-04-11T12:36:43.050Z,64.42
2019-04-11T12:39:30.448Z,63.65
2019-04-11T12:42:10.373Z,63.15
2019-04-11T12:44:59.734Z,63.40
2019-04-11T12:47:32.530Z,63.39
2019-04-11T12:50:11.657Z,64.58
2019-04-11T12:52:44.244Z,65.32
2019-04-11T12:55:16.784Z,63.48
2019-04-11T12:58:07.624Z,63.76
2019-04-11T13:00:44.232Z,63.44
2019-04-11T13:03:33.194Z,62.63
2019-04-11T13:06:20.675Z,60.46
2019-04-11T13:08:54.095Z,61.00
2019-04-11T13:11:26.622Z,60.71
2019-04-11T13:14:01.911Z,60.41
2019-04-11T13:16:32.844Z,60.95
2019-04-11T13:19:20.274Z,61.25
2019-04-11T13:21:52.824Z,60.98
2019-04-11T13:24:38.665Z,60.24
2019-04-11T13:27:13.967Z,61.37
2019-04-11T13:29:46.555Z,61.34
2019-04-11T13:32:34.224Z,61.11
2019-04-11T13:35:14.151Z,60.75
2019-04-11T13:38:01.990Z,60.81
2019-04-11T13:40:47.378Z,60.76
2019-04-11T13:43:34.933Z,60.78
2019-04-11T13:46:16.602Z,60.60
2019-04-11T13:48:49.231Z,61.40
2019-04-11T13:51:28.041Z,61.56
2019-04-11T13:54:19.428Z,62.11
2019-04-11T13:56:55.603Z,61.62
2019-04-11T13:59:37.041Z,59.29
2019-04-11T14:02:17.620Z,59.33
2019-04-11T14:04:50.245Z,58.98
2019-04-11T14:07:24.581Z,60.13
2019-04-11T14:10:02.631Z,63.71
2019-04-11T14:12:34.466Z,69.02
2019-04-11T14:15:10.131Z,72.65
2019-04-11T14:17:59.088Z,73.71
2019-04-11T14:20:34.497Z,75.86
2019-04-11T14:23:24.268Z,77.04
2019-04-11T14:26:09.162Z,76.86
2019-04-11T14:28:45.390Z,76.85
2019-04-11T14:31:21.696Z,76.04
2019-04-11T14:33:58.080Z,75.05
2019-04-11T14:36:46.751Z,74.62
2019-04-11T14:39:22.223Z,73.75
2019-04-11T14:42:12.015Z,73.26
2019-04-11T14:44:46.146Z,72.42
2019-04-11T14:47:24.911Z,74.18
2019-04-11T14:50:06.187Z,76.79
2019-04-11T14:52:51.968Z,77.91
2019-04-11T14:55:24.506Z,79.16
2019-04-11T14:58:02.939Z,79.14
2019-04-11T15:00:39.062Z,78.77
2019-04-11T15:03:29.647Z,78.05
2019-04-11T15:06:14.619Z,77.87
2019-04-11T15:08:51.422Z,77.46
2019-04-11T15:11:24.033Z,76.97
2019-04-11T15:13:56.602Z,76.65
2019-04-11T15:16:37.573Z,76.21
2019-04-11T15:19:08.532Z,75.94
2019-04-11T15:21:47.102Z,75.75
2019-04-11T15:24:18.347Z,75.61
2019-04-11T15:26:53.670Z,74.92
2019-04-11T15:29:26.230Z,74.14
2019-04-11T15:32:01.898Z,73.99
2019-04-11T15:34:36.093Z,73.86
2019-04-11T15:37:25.875Z,73.41
2019-04-11T15:40:10.851Z,72.50
2019-04-11T15:42:58.806Z,69.61
2019-04-11T15:45:47.446Z,69.19
2019-04-11T15:48:23.665Z,68.32
2019-04-11T15:51:10.242Z,68.27
2019-04-11T15:53:49.009Z,67.68
2019-04-11T15:56:41.687Z,67.70
2019-04-11T15:59:15.307Z,67.28
2019-04-11T16:01:57.074Z,67.21
2019-04-11T16:04:33.465Z,67.15
2019-04-11T16:07:12.077Z,67.22
2019-04-11T16:09:44.999Z,67.23
2019-04-11T16:12:17.577Z,67.68
2019-04-11T16:15:07.769Z,67.93
2019-04-11T16:17:57.928Z,67.61
2019-04-11T16:20:32.224Z,67.26
2019-04-11T16:23:13.700Z,68.51
2019-04-11T16:25:46.320Z,70.96
2019-04-11T16:28:21.576Z,72.28
2019-04-11T16:30:57.459Z,73.03
2019-04-11T16:33:45.803Z,74.49
2019-04-11T16:36:21.647Z,74.13
2019-04-11T16:38:59.989Z,74.18
2019-04-11T16:41:54.625Z,74.81
2019-04-11T16:44:46.099Z,73.85
2019-04-11T16:47:35.135Z,74.56
2019-04-11T16:50:06.150Z,75.45
2019-04-11T16:52:38.532Z,76.06
2019-04-11T16:55:10.667Z,77.21
2019-04-11T16:57:44.252Z,77.29
2019-04-11T17:00:19.760Z,76.92
2019-04-11T17:02:48.211Z,76.65
2019-04-11T17:05:19.151Z,76.25
2019-04-11T17:08:08.319Z,76.10
2019-04-11T17:10:58.992Z,76.06
2019-04-11T17:13:32.417Z,75.05
2019-04-11T17:16:04.723Z,74.81
2019-04-11T17:18:35.727Z,74.47
2019-04-11T17:21:08.547Z,73.91
2019-04-11T17:23:40.591Z,73.63
2019-04-11T17:26:11.592Z,72.94
2019-04-11T17:28:43.469Z,73.41
2019-04-11T17:31:14.726Z,75.44
2019-04-11T17:33:45.778Z,78.01
2019-04-11T17:36:16.733Z,78.69
2019-04-11T17:38:48.623Z,78.69
2019-04-11T17:41:24.235Z,78.70
2019-04-11T17:43:55.440Z,78.41
2019-04-11T17:46:26.929Z,78.00
2019-04-11T17:48:58.642Z,77.56
2019-04-11T17:51:34.625Z,77.04
2019-04-11T17:54:04.667Z,77.15
2019-04-11T17:56:37.257Z,77.15
2019-04-11T17:59:08.224Z,77.75
2019-04-11T18:01:39.233Z,79.83
2019-04-11T18:04:13.234Z,79.74
2019-04-11T18:06:46.915Z,79.45
2019-04-11T18:09:16.427Z,78.89
2019-04-11T18:11:47.418Z,78.69
2019-04-11T18:14:18.453Z,78.30
2019-04-11T18:16:49.417Z,77.75
2019-04-11T18:19:20.426Z,77.75
2019-04-11T18:21:51.426Z,76.92
2019-04-11T18:24:23.328Z,76.25
2019-04-11T18:26:54.264Z,75.73
2019-04-11T18:29:25.286Z,75.73
2019-04-11T18:31:56.268Z,75.39
2019-04-11T18:34:27.322Z,75.45
2019-04-11T18:37:01.689Z,74.96
2019-04-11T18:39:33.634Z,74.20
2019-04-11T18:42:11.878Z,73.85
2019-04-11T18:44:42.959Z,73.16
2019-04-11T18:47:13.852Z,73.31
2019-04-11T18:49:45.662Z,73.05
2019-04-11T18:52:19.877Z,73.24
2019-04-11T18:54:50.191Z,73.58
2019-04-11T18:57:21.187Z,73.58
2019-04-11T18:59:53.249Z,73.38
2019-04-11T19:02:24.260Z,73.47
2019-04-11T19:04:55.375Z,72.63
2019-04-11T19:07:28.063Z,72.39
2019-04-11T19:10:00.765Z,72.06
2019-04-11T19:12:31.690Z,72.01
2019-04-11T19:15:02.841Z,72.14
2019-04-11T19:17:33.751Z,72.14
2019-04-11T19:20:06.630Z,71.46
2019-04-11T19:22:38.549Z,71.34
2019-04-11T19:25:12.047Z,71.89
2019-04-11T19:27:43.438Z,72.26
2019-04-11T19:30:15.671Z,72.74
2019-04-11T19:32:46.607Z,73.13
2019-04-11T19:35:17.660Z,73.36
2019-04-11T19:37:48.632Z,73.46
2019-04-11T19:40:19.668Z,74.13
2019-04-11T19:42:50.619Z,75.43
2019-04-11T19:45:21.585Z,76.39
2019-04-11T19:47:52.931Z,76.45
2019-04-11T19:50:29.065Z,76.04
2019-04-11T19:53:02.689Z,76.56
2019-04-11T19:55:38.128Z,75.73
2019-04-11T19:58:09.056Z,76.15
2019-04-11T20:00:40.140Z,76.45
2019-04-11T20:03:11.077Z,76.45
2019-04-11T20:05:42.111Z,76.21
2019-04-11T20:08:13.047Z,75.65
2019-04-11T20:10:44.299Z,75.46
2019-04-11T20:13:15.257Z,75.52
2019-04-11T20:15:46.321Z,75.48
2019-04-11T20:18:17.267Z,76.00
2019-04-11T20:20:48.305Z,75.62
2019-04-11T20:23:19.233Z,75.52
2019-04-11T20:25:51.249Z,74.77
2019-04-11T20:28:22.217Z,74.26
2019-04-11T20:30:53.295Z,73.91
2019-04-11T20:33:27.471Z,72.76
2019-04-11T20:35:56.990Z,72.76
2019-04-11T20:38:27.926Z,71.83
2019-04-11T20:40:59.825Z,71.85
2019-04-11T20:43:30.782Z,71.16
2019-04-11T20:46:01.807Z,71.02
2019-04-11T20:48:35.141Z,71.11
2019-04-11T20:51:07.861Z,70.99
2019-04-11T20:53:38.873Z,71.07
2019-04-11T20:56:10.803Z,71.28
2019-04-11T20:58:41.751Z,71.60
2019-04-11T21:01:12.761Z,71.46
2019-04-11T21:03:43.767Z,71.40
2019-04-11T21:06:14.737Z,71.85
2019-04-11T21:08:45.883Z,72.47
2019-04-11T21:11:18.789Z,72.47
2019-04-11T21:13:49.885Z,72.57
2019-04-11T21:16:20.820Z,72.94
2019-04-11T21:18:54.468Z,72.70
2019-04-11T21:21:25.219Z,72.70
2019-04-11T21:23:58.008Z,72.89
2019-04-11T21:26:30.469Z,72.80
2019-04-11T21:29:01.524Z,72.95
2019-04-11T21:31:32.571Z,72.64
2019-04-11T21:34:03.750Z,72.64
2019-04-11T21:36:34.696Z,72.85
2019-04-11T21:39:07.725Z,72.87
2019-04-11T21:41:39.594Z,72.41
2019-04-11T21:44:10.534Z,72.41
2019-04-11T21:46:42.055Z,72.42
2019-04-11T21:49:13.072Z,72.55
2019-04-11T21:51:44.961Z,72.47
2019-04-11T21:54:15.960Z,72.43
2019-04-11T21:56:49.523Z,72.65
2019-04-11T21:59:20.340Z,72.37
2019-04-11T22:01:54.099Z,72.15
2019-04-11T22:04:27.071Z,71.92
2019-04-11T22:07:00.732Z,72.06
2019-04-11T22:09:30.007Z,72.14
2019-04-11T22:12:01.072Z,72.16
2019-04-11T22:14:31.953Z,72.23
2019-04-11T22:17:02.877Z,72.18
2019-04-11T22:19:33.759Z,72.20
2019-04-11T22:22:04.677Z,72.21
2019-04-11T22:24:35.572Z,72.22
2019-04-11T22:27:06.544Z,72.17
2019-04-11T22:29:37.453Z,72.33
2019-04-11T22:32:08.373Z,72.23
2019-04-11T22:34:40.916Z,72.33
2019-04-11T22:37:11.839Z,72.41
2019-04-11T22:39:42.734Z,72.41
2019-04-11T22:42:14.893Z,72.07
2019-04-11T22:44:45.841Z,71.51
2019-04-11T22:47:16.829Z,71.64
2019-04-11T22:49:47.731Z,71.42
2019-04-11T22:52:20.413Z,71.19
2019-04-11T22:54:51.347Z,70.86
2019-04-11T22:57:22.269Z,70.44
2019-04-11T22:59:53.174Z,70.17
2019-04-11T23:02:31.700Z,70.19
2019-04-11T23:05:02.587Z,70.27
2019-04-11T23:07:33.510Z,70.31
2019-04-11T23:10:06.922Z,69.91
2019-04-11T23:12:39.525Z,70.09
2019-04-11T23:15:10.431Z,70.18
2019-04-11T23:17:41.754Z,70.25
2019-04-11T23:20:15.023Z,70.15
2019-04-11T23:22:47.921Z,70.15
2019-04-11T23:25:20.563Z,69.97
2019-04-11T23:27:51.518Z,70.00
2019-04-11T23:30:22.525Z,69.82
2019-04-11T23:32:53.683Z,70.18
2019-04-11T23:35:24.671Z,70.52
2019-04-11T23:37:55.596Z,70.47
2019-04-11T23:40:26.659Z,71.76
2019-04-11T23:42:58.617Z,72.00
2019-04-11T23:45:33.055Z,72.00
2019-04-11T23:48:03.983Z,73.66
2019-04-11T23:50:38.123Z,74.60
2019-04-11T23:53:09.855Z,74.60
2019-04-11T23:55:41.006Z,77.36
2019-04-11T23:58:13.821Z,76.95
